Time;durP1;ratioP1;P1;durP2;ratioP2;P2;SDS_P1;SDS_P2;PMS_P1;PMS_P2;Temp;Humidity;BMP_temperature;BMP_pressure;BME280_temperature;BME280_humidity;BME280_pressure;Samples;Min_cycle;Max_cycle;Signal;HPM_P1;HPM_P2
2022/10/06 00:01:56;;;;;;;6.97;1.00;;;;;;;15.45;72.57;102183.97;5005397;28;20969;-54
2022/10/06 00:04:21;;;;;;;12.00;1.40;;;;;;;15.45;72.32;102192.63;5001298;28;20061;-54
2022/10/06 00:06:47;;;;;;;6.75;1.30;;;;;;;15.42;72.82;102204.63;5008471;28;20103;-54
2022/10/06 00:09:12;;;;;;;9.50;1.40;;;;;;;15.43;72.65;102212.44;5007281;28;20588;-54
2022/10/06 00:11:37;;;;;;;9.32;1.23;;;;;;;15.37;73.19;102212.25;5005422;28;20449;-55
2022/10/06 00:14:03;;;;;;;8.95;1.25;;;;;;;15.43;72.98;102214.16;5004365;28;20054;-55
2022/10/06 00:16:28;;;;;;;8.35;1.05;;;;;;;15.35;72.94;102215.63;5003645;28;20029;-55
2022/10/06 00:18:55;;;;;;;6.28;1.13;;;;;;;15.30;72.81;102218.09;5008063;28;20475;-55
2022/10/06 00:21:21;;;;;;;8.20;1.40;;;;;;;15.24;73.18;102221.38;5006180;28;20487;-54
2022/10/06 00:23:46;;;;;;;11.13;1.33;;;;;;;15.25;72.87;102230.91;5006592;28;20037;-54
2022/10/06 00:26:16;;;;;;;14.48;1.40;;;;;;;15.24;72.92;102234.34;5006283;28;20053;-55
2022/10/06 00:28:46;;;;;;;13.90;1.92;;;;;;;15.22;72.75;102242.88;5005989;28;20049;-54
2022/10/06 00:31:11;;;;;;;11.35;1.35;;;;;;;15.19;72.42;102250.56;5006925;28;20032;-55
2022/10/06 00:33:37;;;;;;;8.30;1.50;;;;;;;15.13;72.21;102258.16;5022224;28;20018;-55
2022/10/06 00:36:03;;;;;;;8.52;1.48;;;;;;;15.08;72.34;102259.72;5007851;28;20458;-55
2022/10/06 00:38:28;;;;;;;7.82;1.17;;;;;;;15.05;72.14;102267.41;5008168;28;20070;-54
2022/10/06 00:40:54;;;;;;;11.77;1.90;;;;;;;15.01;71.89;102262.09;5005172;28;20038;-54
2022/10/06 00:43:47;;;;;;;9.05;1.30;;;;;;;15.13;71.58;102263.34;5006854;28;20034;-55
2022/10/06 00:46:33;;;;;;;10.02;1.55;;;;;;;15.09;71.75;102274.41;5003324;28;20033;-55
2022/10/06 00:49:07;;;;;;;10.38;1.70;;;;;;;15.02;71.55;102274.22;5005762;28;20045;-55
2022/10/06 00:51:37;;;;;;;9.65;1.58;;;;;;;14.96;71.31;102279.22;5005610;28;20030;-55
2022/10/06 00:54:02;;;;;;;11.65;1.75;;;;;;;14.94;71.05;102277.41;5008102;28;20847;-54
2022/10/06 00:56:28;;;;;;;11.88;1.73;;;;;;;14.95;71.12;102285.22;5006934;28;20034;-55
2022/10/06 00:58:53;;;;;;;8.30;1.40;;;;;;;14.90;70.63;102286.78;5006074;28;20128;-54
2022/10/06 01:01:19;;;;;;;10.82;1.90;;;;;;;14.89;70.41;102294.50;5007247;28;20030;-55
2022/10/06 01:03:49;;;;;;;12.25;1.65;;;;;;;14.91;70.28;102288.53;5010755;28;20060;-54
2022/10/06 01:06:15;;;;;;;8.70;1.70;;;;;;;14.81;70.82;102293.38;5011043;28;20540;-55
2022/10/06 01:08:40;;;;;;;10.93;1.42;;;;;;;14.86;71.33;102303.03;5011082;28;20038;-55
2022/10/06 01:11:12;;;;;;;12.75;1.85;;;;;;;14.85;71.33;102306.44;5008139;28;20070;-55
2022/10/06 01:13:39;;;;;;;12.75;1.73;;;;;;;14.88;71.27;102316.94;5009752;28;20034;-54
2022/10/06 01:16:23;;;;;;;9.25;1.60;;;;;;;14.86;71.73;102321.16;5010143;28;20034;-55
2022/10/06 01:18:49;;;;;;;8.60;1.50;;;;;;;14.79;72.01;102319.19;5010548;28;20368;-55
2022/10/06 01:21:41;;;;;;;7.35;1.55;;;;;;;14.85;71.90;102329.75;5011389;28;20044;-53
2022/10/06 01:24:06;;;;;;;10.93;1.70;;;;;;;14.75;72.23;102330.31;5009464;28;20505;-48
2022/10/06 01:26:34;;;;;;;9.02;1.63;;;;;;;14.80;72.59;102331.31;5011217;28;20037;-55
2022/10/06 01:29:00;;;;;;;8.30;1.30;;;;;;;14.80;72.65;102333.91;5009455;28;20763;-55
2022/10/06 01:31:26;;;;;;;11.40;1.67;;;;;;;14.80;72.03;102345.97;5009434;28;20060;-55
2022/10/06 01:33:53;;;;;;;10.98;2.05;;;;;;;14.79;72.07;102352.84;5008781;28;20057;-55
2022/10/06 01:36:19;;;;;;;10.15;1.30;;;;;;;14.76;71.78;102350.19;5008768;28;20109;-55
2022/10/06 01:38:45;;;;;;;8.10;1.45;;;;;;;14.74;71.92;102352.72;5011007;28;20034;-54
2022/10/06 01:41:10;;;;;;;9.48;1.55;;;;;;;14.68;72.00;102352.50;5010026;28;20018;-55
2022/10/06 01:43:35;;;;;;;7.82;1.40;;;;;;;14.67;71.86;102361.09;5008145;28;20127;-55
2022/10/06 01:46:01;;;;;;;13.52;2.03;;;;;;;14.73;71.51;102357.81;5009973;28;20107;-55
2022/10/06 01:48:26;;;;;;;7.40;1.55;;;;;;;14.73;70.90;102355.25;5009487;28;20056;-55
2022/10/06 01:50:52;;;;;;;11.23;1.67;;;;;;;14.72;71.07;102354.34;5008263;28;20026;-55
2022/10/06 01:53:18;;;;;;;8.45;1.35;;;;;;;14.62;71.01;102357.47;5007663;28;21569;-54
2022/10/06 01:55:43;;;;;;;8.85;1.52;;;;;;;14.66;71.13;102363.63;5009725;28;20083;-55
2022/10/06 01:58:09;;;;;;;11.75;1.38;;;;;;;14.60;71.27;102364.28;5008936;28;20045;-55
2022/10/06 02:00:35;;;;;;;5.60;1.20;;;;;;;14.52;70.95;102365.72;5007392;28;20371;-55
2022/10/06 02:03:00;;;;;;;11.00;1.70;;;;;;;14.53;70.84;102375.25;5007237;28;20029;-55
2022/10/06 02:05:26;;;;;;;8.60;1.42;;;;;;;14.52;71.18;102375.22;5008057;28;20030;-55
2022/10/06 02:07:51;;;;;;;11.20;1.80;;;;;;;14.48;70.87;102377.66;5008978;28;20045;-55
2022/10/06 02:10:17;;;;;;;13.60;1.90;;;;;;;14.46;71.02;102381.91;5007269;28;20041;-53
2022/10/06 02:12:43;;;;;;;13.82;1.70;;;;;;;14.48;71.02;102381.97;5008428;28;20030;-55
2022/10/06 02:15:09;;;;;;;9.15;1.50;;;;;;;14.45;70.95;102380.13;5008627;28;20157;-55
2022/10/06 02:17:37;;;;;;;9.90;1.50;;;;;;;14.43;71.21;102391.22;5010651;28;20371;-55
2022/10/06 02:20:04;;;;;;;9.98;1.58;;;;;;;14.40;71.07;102393.72;5008205;28;20022;-55
2022/10/06 02:22:30;;;;;;;8.18;1.30;;;;;;;14.37;71.11;102394.47;5008378;28;20030;-55
2022/10/06 02:24:55;;;;;;;13.18;2.10;;;;;;;14.38;71.26;102408.31;5004962;28;20032;-54
2022/10/06 02:27:20;;;;;;;11.48;1.73;;;;;;;14.41;71.20;102411.00;5009831;28;20478;-54
2022/10/06 02:29:48;;;;;;;11.70;1.70;;;;;;;14.38;71.13;102418.69;5009007;28;20383;-55
2022/10/06 02:32:13;;;;;;;11.27;1.88;;;;;;;14.35;71.13;102418.53;5009316;28;20030;-55
2022/10/06 02:34:39;;;;;;;13.00;1.60;;;;;;;14.33;71.15;102421.09;5008708;28;20030;-55
2022/10/06 02:37:04;;;;;;;10.40;1.55;;;;;;;14.35;71.21;102424.59;5008749;28;20075;-55
2022/10/06 02:39:29;;;;;;;13.50;2.10;;;;;;;14.29;71.15;102432.13;5006593;28;20030;-55
2022/10/06 02:41:55;;;;;;;11.25;1.80;;;;;;;14.31;71.04;102438.25;5007185;28;20137;-55
2022/10/06 02:44:20;;;;;;;6.00;1.30;;;;;;;14.30;71.20;102436.47;5008061;28;20059;-54
2022/10/06 02:46:46;;;;;;;10.10;1.55;;;;;;;14.22;71.07;102450.84;5006574;28;20475;-55
2022/10/06 02:49:12;;;;;;;14.27;1.98;;;;;;;14.20;70.78;102448.19;5007927;28;20034;-55
2022/10/06 02:51:37;;;;;;;12.15;2.10;;;;;;;14.22;71.24;102445.66;5009719;28;20033;-55
2022/10/06 02:54:03;;;;;;;10.50;1.90;;;;;;;14.22;71.04;102458.59;5009089;28;20033;-55
2022/10/06 02:56:28;;;;;;;13.48;1.85;;;;;;;14.14;71.04;102460.03;5005542;28;20034;-55
2022/10/06 02:58:54;;;;;;;13.68;2.20;;;;;;;14.12;71.29;102459.06;5008161;28;20403;-55
2022/10/06 03:01:25;;;;;;;14.93;2.08;;;;;;;14.13;71.46;102471.16;5007857;28;20034;-56
2022/10/06 03:03:50;;;;;;;12.68;2.13;;;;;;;14.08;71.45;102476.19;5008056;28;20399;-54
2022/10/06 03:06:24;;;;;;;14.52;1.73;;;;;;;14.09;71.47;102477.94;5008290;28;20034;-56
2022/10/06 03:08:55;;;;;;;11.73;1.70;;;;;;;14.01;71.58;102484.50;5008093;28;20045;-55
2022/10/06 03:11:23;;;;;;;13.60;1.90;;;;;;;14.03;71.54;102480.28;5006738;28;20057;-55
2022/10/06 03:13:50;;;;;;;8.18;1.58;;;;;;;13.98;71.49;102486.97;5006084;28;20538;-56
2022/10/06 03:16:18;;;;;;;11.07;1.92;;;;;;;13.91;71.70;102491.03;5006538;28;20040;-55
2022/10/06 03:18:48;;;;;;;11.48;1.92;;;;;;;13.93;71.77;102497.13;5008246;28;20041;-55
2022/10/06 03:21:18;;;;;;;17.35;2.10;;;;;;;13.86;71.74;102489.94;5004484;28;20080;-55
2022/10/06 03:23:45;;;;;;;13.35;2.30;;;;;;;13.86;72.29;102495.13;5009231;28;20038;-54
2022/10/06 03:26:11;;;;;;;11.93;1.90;;;;;;;13.82;72.02;102493.22;5006764;28;20509;-53
2022/10/06 03:28:38;;;;;;;9.90;1.67;;;;;;;13.78;71.71;102498.22;5003370;28;20061;-55
2022/10/06 03:31:05;;;;;;;16.30;1.98;;;;;;;13.81;72.53;102506.97;5007132;28;20497;-55
2022/10/06 03:33:31;;;;;;;13.25;1.80;;;;;;;13.65;72.30;102504.56;5008509;28;20491;-55
2022/10/06 03:36:01;;;;;;;13.20;2.22;;;;;;;13.75;72.23;102518.78;5007490;28;20056;-56
2022/10/06 03:38:26;;;;;;;13.10;2.10;;;;;;;13.67;72.57;102515.88;5006575;28;20499;-55
2022/10/06 03:40:52;;;;;;;12.65;1.80;;;;;;;13.71;72.35;102520.38;5008651;28;20030;-54
2022/10/06 03:43:17;;;;;;;15.05;2.00;;;;;;;13.72;72.61;102522.13;5006833;28;20026;-55
2022/10/06 03:45:42;;;;;;;9.13;1.90;;;;;;;13.71;72.88;102524.63;5005690;28;20072;-55
2022/10/06 03:48:08;;;;;;;13.88;1.80;;;;;;;13.68;72.59;102525.38;5008196;28;20057;-55
2022/10/06 03:50:33;;;;;;;12.02;2.20;;;;;;;13.68;72.66;102527.97;5004191;28;20042;-55
2022/10/06 03:52:58;;;;;;;8.15;1.70;;;;;;;13.68;72.70;102540.91;5008630;28;20025;-55
2022/10/06 03:55:24;;;;;;;10.23;2.00;;;;;;;13.65;72.86;102545.94;5002415;28;20038;-56
2022/10/06 03:57:49;;;;;;;13.98;2.10;;;;;;;13.63;73.38;102552.75;5005707;28;20506;-55
2022/10/06 04:00:14;;;;;;;10.07;2.10;;;;;;;13.57;73.26;102550.78;5005332;28;20113;-54
2022/10/06 04:02:40;;;;;;;13.68;1.80;;;;;;;13.59;73.22;102558.59;5006320;28;20119;-55
2022/10/06 04:05:06;;;;;;;10.38;1.70;;;;;;;13.60;73.07;102565.56;5000857;28;20038;-54
2022/10/06 04:07:31;;;;;;;18.48;1.90;;;;;;;13.54;73.65;102567.88;5003252;28;20491;-55
2022/10/06 04:09:56;;;;;;;8.25;2.08;;;;;;;13.49;73.61;102570.25;5007613;28;20031;-55
2022/10/06 04:12:21;;;;;;;11.05;2.28;;;;;;;13.45;73.65;102580.38;5003628;28;20038;-54
2022/10/06 04:14:47;;;;;;;9.43;1.70;;;;;;;13.47;74.22;102579.66;5005557;28;20034;-53
2022/10/06 04:17:12;;;;;;;14.13;2.08;;;;;;;13.45;73.82;102582.97;5005554;28;20045;-55
2022/10/06 04:19:38;;;;;;;15.75;2.20;;;;;;;13.42;73.84;102588.91;5007365;28;20041;-55
2022/10/06 04:22:03;;;;;;;13.45;1.80;;;;;;;13.40;74.29;102586.22;5006485;28;20041;-54
2022/10/06 04:24:29;;;;;;;9.65;2.08;;;;;;;13.37;73.89;102588.69;5003585;28;20514;-56
2022/10/06 04:27:26;;;;;;;12.38;2.20;;;;;;;13.38;74.08;102597.31;5007825;28;20033;-54
2022/10/06 04:29:39;;;;;;;11.63;2.08;;;;;;;13.39;73.90;102596.50;5007817;28;20049;-55
2022/10/06 04:32:04;;;;;;;12.80;2.00;;;;;;;13.36;74.19;102604.13;5006354;28;20038;-54
2022/10/06 04:34:30;;;;;;;12.15;2.15;;;;;;;13.36;74.08;102601.56;5006041;28;20061;-54
2022/10/06 04:36:55;;;;;;;9.90;1.90;;;;;;;13.34;74.03;102608.31;5010812;28;20030;-55
2022/10/06 04:39:20;;;;;;;13.10;2.17;;;;;;;13.28;74.33;102606.34;5010529;28;20037;-55
2022/10/06 04:41:46;;;;;;;10.38;1.73;;;;;;;13.26;74.11;102613.16;5012266;28;20034;-53
2022/10/06 04:44:11;;;;;;;14.73;2.28;;;;;;;13.22;74.83;102615.53;5010304;28;20041;-55
2022/10/06 04:46:37;;;;;;;16.67;2.50;;;;;;;13.17;75.02;102612.72;5011808;28;20037;-55
2022/10/06 04:49:03;;;;;;;12.27;2.10;;;;;;;13.17;74.74;102623.06;5008790;28;20026;-55
2022/10/06 04:51:28;;;;;;;16.15;2.35;;;;;;;13.10;75.10;102621.91;5009301;28;20021;-55
2022/10/06 04:53:54;;;;;;;12.15;2.17;;;;;;;13.07;74.56;102626.03;5009573;28;20037;-55
2022/10/06 04:56:25;;;;;;;14.48;2.28;;;;;;;13.13;74.92;102627.19;5003380;28;20066;-55
2022/10/06 04:58:53;;;;;;;12.00;2.28;;;;;;;13.04;74.87;102629.38;5011850;28;20037;-55
2022/10/06 05:01:24;;;;;;;13.50;2.35;;;;;;;13.02;74.62;102635.25;5009297;28;20038;-55
2022/10/06 05:03:51;;;;;;;13.10;1.77;;;;;;;13.00;74.82;102640.34;5007542;28;20029;-55
2022/10/06 05:06:20;;;;;;;11.85;2.65;;;;;;;13.00;74.79;102642.06;5009537;28;20038;-55
2022/10/06 05:08:56;;;;;;;13.77;2.30;;;;;;;12.98;74.97;102654.88;5009471;28;20022;-55
2022/10/06 05:11:22;;;;;;;16.42;2.75;;;;;;;12.93;75.06;102655.50;5007051;28;20026;-55
2022/10/06 05:13:53;;;;;;;18.85;2.72;;;;;;;12.91;75.14;102659.69;5008713;28;20030;-54
2022/10/06 05:16:20;;;;;;;11.18;2.38;;;;;;;12.86;74.88;102660.38;5009777;28;20061;-55
2022/10/06 05:18:45;;;;;;;14.23;2.28;;;;;;;12.88;75.12;102670.78;5009059;28;20120;-55
2022/10/06 05:21:16;;;;;;;12.25;2.30;;;;;;;12.87;75.05;102671.59;5010198;28;20419;-55
2022/10/06 05:23:44;;;;;;;12.10;2.17;;;;;;;12.83;75.05;102680.88;5009124;28;20597;-54
2022/10/06 05:26:11;;;;;;;17.13;2.80;;;;;;;12.82;74.65;102681.69;5006860;28;20029;-55
2022/10/06 05:28:37;;;;;;;10.45;2.00;;;;;;;12.80;74.91;102683.31;5024836;28;20045;-55
2022/10/06 05:31:10;;;;;;;15.63;2.78;;;;;;;12.82;75.03;102686.84;5010246;28;20486;-55
2022/10/06 05:33:36;;;;;;;14.75;2.33;;;;;;;12.77;74.85;102690.91;5008067;28;20041;-55
2022/10/06 05:36:10;;;;;;;13.90;2.58;;;;;;;12.80;74.89;102698.81;5008901;28;20045;-55
2022/10/06 05:38:35;;;;;;;20.40;2.50;;;;;;;12.78;74.54;102700.41;5008564;28;20036;-55
2022/10/06 05:41:10;;;;;;;12.63;2.33;;;;;;;12.80;74.89;102703.97;5009288;28;20037;-55
2022/10/06 05:43:36;;;;;;;12.43;2.42;;;;;;;12.76;74.71;102707.22;5008689;28;20069;-55
2022/10/06 05:46:04;;;;;;;13.18;2.70;;;;;;;12.74;74.83;102714.00;5008821;28;20057;-55
2022/10/06 05:48:30;;;;;;;15.27;2.58;;;;;;;12.68;74.76;102716.28;5008764;28;20486;-55
2022/10/06 05:51:03;;;;;;;17.85;2.70;;;;;;;12.75;75.00;102720.06;5007674;28;20080;-55
2022/10/06 05:53:30;;;;;;;15.60;2.50;;;;;;;12.69;74.86;102723.22;5009962;28;20109;-55
2022/10/06 05:56:18;;;;;;;13.40;2.67;;;;;;;12.74;74.73;102724.34;5006643;28;20029;-54
2022/10/06 05:58:47;;;;;;;15.55;2.97;;;;;;;12.66;74.69;102727.31;5008327;28;20065;-55
2022/10/06 06:01:21;;;;;;;14.75;3.05;;;;;;;12.68;74.91;102738.59;5006763;28;20028;-55
2022/10/06 06:03:51;;;;;;;12.95;2.83;;;;;;;12.61;75.51;102740.88;5005522;28;20022;-55
2022/10/06 06:06:20;;;;;;;21.95;3.33;;;;;;;12.58;75.08;102739.88;4999459;28;20486;-54
2022/10/06 06:08:47;;;;;;;18.63;2.75;;;;;;;12.61;75.18;102752.91;5003420;28;20041;-55
2022/10/06 06:11:13;;;;;;;20.08;3.10;;;;;;;12.52;75.37;102755.03;5003844;28;20057;-57
2022/10/06 06:13:38;;;;;;;39.53;5.35;;;;;;;12.55;74.99;102755.19;5004144;28;20441;-53
2022/10/06 06:16:06;;;;;;;21.48;2.78;;;;;;;12.53;75.21;102754.22;5008586;28;20041;-53
2022/10/06 06:18:35;;;;;;;18.25;2.97;;;;;;;12.54;74.97;102759.44;5009996;28;20478;-54
2022/10/06 06:21:03;;;;;;;20.25;2.95;;;;;;;12.57;75.14;102761.31;5008911;28;20045;-54
2022/10/06 06:23:40;;;;;;;29.30;4.38;;;;;;;12.61;75.08;102769.25;5009094;28;20057;-54
2022/10/06 06:26:10;;;;;;;18.30;3.30;;;;;;;12.61;75.10;102773.53;5007830;28;20025;-54
2022/10/06 06:28:36;;;;;;;13.93;3.10;;;;;;;12.56;75.21;102775.03;5007030;28;20054;-55
2022/10/06 06:31:13;;;;;;;16.10;3.63;;;;;;;12.59;75.45;102767.44;5007341;28;20042;-54
2022/10/06 06:33:40;;;;;;;19.45;2.92;;;;;;;12.57;75.48;102771.66;5008648;28;20560;-53
2022/10/06 06:36:17;;;;;;;16.55;3.15;;;;;;;12.59;75.27;102767.44;5008438;28;20056;-54
2022/10/06 06:38:46;;;;;;;14.88;2.78;;;;;;;12.59;75.56;102770.00;5007957;28;20036;-55
2022/10/06 06:41:12;;;;;;;;;;;;;;;12.78;74.67;102777.84;5009654;28;20022;-54
2022/10/06 06:43:38;;;;;;;16.58;3.08;;;;;;;12.60;75.39;102782.09;5006983;28;19913;-55
2022/10/06 06:46:03;;;;;;;14.63;2.50;;;;;;;12.58;75.44;102778.56;5010314;28;20387;-54
2022/10/06 06:48:29;;;;;;;16.80;3.15;;;;;;;12.55;75.44;102787.03;5007524;28;20507;-53
2022/10/06 06:50:56;;;;;;;11.00;2.10;;;;;;;12.61;75.54;102789.91;5007718;28;20113;-54
2022/10/06 06:53:22;;;;;;;21.02;3.38;;;;;;;12.62;75.45;102793.41;5005404;28;20032;-54
2022/10/06 06:55:49;;;;;;;15.20;2.60;;;;;;;12.65;75.77;102798.72;5012172;28;20459;-54
2022/10/06 06:58:15;;;;;;;15.65;2.90;;;;;;;12.62;76.07;102811.47;5006075;28;20552;-54
2022/10/06 07:00:40;;;;;;;16.17;3.30;;;;;;;12.60;75.59;102813.97;5008344;28;20050;-54
2022/10/06 07:03:06;;;;;;;14.30;2.72;;;;;;;12.67;75.51;102804.81;5007987;28;20578;-54
2022/10/06 07:05:31;;;;;;;16.85;2.70;;;;;;;12.64;75.44;102807.28;5005870;28;20406;-53
2022/10/06 07:07:56;;;;;;;16.25;3.47;;;;;;;12.66;76.00;102818.53;5009667;28;20029;-53
2022/10/06 07:10:22;;;;;;;16.85;3.00;;;;;;;12.68;75.30;102824.69;5007568;28;20085;-54
2022/10/06 07:12:47;;;;;;;21.42;3.15;;;;;;;12.67;75.17;102833.22;5006493;28;20041;-54
2022/10/06 07:26:08;;;;;;;18.80;3.30;;;;;;;12.80;75.68;102843.38;5008232;28;20480;-53
2022/10/06 07:28:33;;;;;;;24.45;3.42;;;;;;;12.80;75.45;102851.13;5013054;28;20034;-54
2022/10/06 07:30:59;;;;;;;17.02;2.70;;;;;;;12.82;75.59;102864.97;5009449;28;20478;-54
2022/10/06 07:33:27;;;;;;;17.83;3.28;;;;;;;12.83;75.44;102869.34;5003777;28;20038;-53
2022/10/06 07:35:53;;;;;;;15.57;3.28;;;;;;;12.84;75.29;102878.84;5006879;28;20117;-54
2022/10/06 07:38:24;;;;;;;17.08;3.55;;;;;;;12.88;75.39;102879.91;5009171;28;20038;-53
2022/10/06 07:40:54;;;;;;;16.05;2.75;;;;;;;12.92;75.22;102881.81;5008303;28;20390;-54
2022/10/06 07:43:19;;;;;;;17.58;2.78;;;;;;;12.93;75.98;102891.34;5008187;28;20041;-53
2022/10/06 07:45:45;;;;;;;17.20;3.70;;;;;;;12.95;75.24;102888.84;5006785;28;20026;-54
2022/10/06 07:48:19;;;;;;;20.25;3.28;;;;;;;12.96;75.55;102890.63;5009216;28;20492;-55
2022/10/06 07:50:46;;;;;;;15.65;2.80;;;;;;;13.00;75.06;102893.44;5008141;28;20032;-54
2022/10/06 07:53:12;;;;;;;18.13;3.58;;;;;;;13.10;74.99;102897.34;5011887;28;20037;-55
2022/10/06 07:55:39;;;;;;;16.48;3.30;;;;;;;13.20;74.83;102890.94;5003959;28;20557;-53
2022/10/06 07:58:17;;;;;;;17.42;3.25;;;;;;;13.39;74.85;102893.66;5006423;28;20109;-53
2022/10/06 08:00:43;;;;;;;15.88;3.33;;;;;;;13.56;73.92;102902.25;5007336;28;20036;-55
2022/10/06 08:03:10;;;;;;;16.20;3.17;;;;;;;13.69;73.61;102905.47;5009305;28;20034;-55
2022/10/06 08:05:36;;;;;;;20.20;3.15;;;;;;;13.90;72.77;102902.16;5009718;28;20034;-51
2022/10/06 08:08:02;;;;;;;15.30;2.90;;;;;;;14.10;72.38;102903.06;5008566;28;20026;-55
2022/10/06 08:10:27;;;;;;;19.92;3.30;;;;;;;14.26;72.05;102910.72;5006069;28;20048;-55
2022/10/06 08:12:53;;;;;;;15.18;3.03;;;;;;;14.53;70.95;102910.22;5004792;28;20394;-55
2022/10/06 08:15:18;;;;;;;15.82;2.80;;;;;;;14.78;69.68;102913.06;5008872;28;20041;-55
2022/10/06 08:17:44;;;;;;;17.30;2.95;;;;;;;14.93;69.14;102913.72;5008384;28;20509;-55
2022/10/06 08:20:11;;;;;;;16.85;3.03;;;;;;;15.20;69.13;102923.47;5009635;28;20064;-54
2022/10/06 08:22:38;;;;;;;18.85;3.30;;;;;;;15.34;68.07;102921.44;5009781;28;20057;-55
2022/10/06 08:25:05;;;;;;;14.73;2.70;;;;;;;15.48;67.48;102922.91;5007557;28;20026;-55
2022/10/06 08:27:30;;;;;;;15.65;2.97;;;;;;;15.73;67.21;102927.41;5005341;28;20038;-55
2022/10/06 08:29:56;;;;;;;14.63;2.70;;;;;;;15.94;66.36;102933.44;5007984;28;20041;-60
2022/10/06 08:32:22;;;;;;;20.73;2.67;;;;;;;16.17;65.03;102934.31;5009409;28;20036;-55
2022/10/06 08:34:49;;;;;;;19.58;3.00;;;;;;;16.25;65.10;102939.78;5005018;28;20072;-55
2022/10/06 08:37:16;;;;;;;15.77;2.78;;;;;;;16.44;64.77;102947.47;5005038;28;20034;-53
2022/10/06 08:39:41;;;;;;;16.90;2.45;;;;;;;16.64;64.82;102950.78;5003659;28;20038;-54
2022/10/06 08:42:17;;;;;;;15.65;3.08;;;;;;;16.73;63.48;102950.25;5003523;28;20182;-55
2022/10/06 08:44:47;;;;;;;12.75;2.80;;;;;;;16.80;63.98;102949.63;5008110;28;20026;-55
2022/10/06 08:47:21;;;;;;;15.05;3.13;;;;;;;16.92;63.67;102951.78;5008272;28;20559;-55
2022/10/06 08:49:49;;;;;;;16.88;2.72;;;;;;;16.97;63.04;102958.03;5008862;28;20083;-55
2022/10/06 08:52:14;;;;;;;18.60;3.27;;;;;;;16.99;63.15;102946.00;5005984;28;20037;-55
2022/10/06 08:54:49;;;;;;;14.70;2.83;;;;;;;17.07;62.83;102955.81;5008378;28;20026;-55
2022/10/06 08:57:41;;;;;;;13.77;2.80;;;;;;;17.10;62.94;102961.09;5008811;28;20033;-56
2022/10/06 09:00:12;;;;;;;20.77;3.20;;;;;;;17.10;62.05;102963.69;5006401;28;20042;-51
2022/10/06 09:02:44;;;;;;;15.85;3.00;;;;;;;17.02;62.54;102965.16;5009360;28;20105;-55
2022/10/06 09:05:12;;;;;;;11.55;2.45;;;;;;;17.09;62.01;102971.44;5000666;28;20026;-55
2022/10/06 09:07:55;;;;;;;14.27;3.03;;;;;;;17.13;62.88;102975.94;5002784;28;20101;-54
2022/10/06 09:10:48;;;;;;;15.57;2.92;;;;;;;17.11;62.42;102973.28;5008621;28;20030;-55
2022/10/06 09:13:37;;;;;;;15.90;2.60;;;;;;;17.10;62.78;102986.22;5008607;28;20398;-55
2022/10/06 09:16:07;;;;;;;15.55;2.67;;;;;;;17.05;63.30;102991.28;5007052;28;20028;-55
2022/10/06 09:18:50;;;;;;;16.20;3.15;;;;;;;17.14;62.75;102995.91;5008067;28;20500;-55
2022/10/06 09:21:29;;;;;;;14.00;2.78;;;;;;;17.08;61.93;102996.56;5008217;28;20390;-55
2022/10/06 09:24:02;;;;;;;15.27;2.50;;;;;;;17.14;62.33;103007.19;5012296;28;20800;-55
2022/10/06 09:26:32;;;;;;;15.82;3.00;;;;;;;17.16;61.77;103004.63;5010478;28;20091;-55
2022/10/06 09:28:59;;;;;;;13.57;2.88;;;;;;;17.12;61.60;103006.25;5012042;28;20022;-55
2022/10/06 09:31:36;;;;;;;15.90;2.80;;;;;;;17.12;61.89;103002.78;5010941;28;20076;-54
2022/10/06 09:34:17;;;;;;;16.95;2.70;;;;;;;17.21;62.73;103007.38;5008490;28;20036;-53
2022/10/06 09:36:58;;;;;;;13.90;2.50;;;;;;;17.22;62.31;103003.94;5007237;28;20034;-55
2022/10/06 09:39:25;;;;;;;11.63;2.40;;;;;;;17.12;61.00;103006.25;5010591;28;20117;-54
2022/10/06 09:41:50;;;;;;;15.73;2.67;;;;;;;17.13;60.83;103010.63;5014424;28;20029;-54
2022/10/06 09:44:26;;;;;;;12.57;2.15;;;;;;;17.15;60.87;103005.47;5011867;28;20042;-55
2022/10/06 09:46:52;;;;;;;14.75;2.38;;;;;;;17.02;60.31;103019.75;5011535;28;20052;-53
2022/10/06 09:49:22;;;;;;;15.27;3.05;;;;;;;17.12;60.90;103020.97;5008927;28;20066;-55
2022/10/06 09:52:14;;;;;;;11.13;2.20;;;;;;;17.09;60.93;103013.94;5011082;28;20030;-55
2022/10/06 09:54:43;;;;;;;17.25;2.42;;;;;;;16.95;60.27;103020.34;5011842;28;20030;-54
2022/10/06 09:57:20;;;;;;;13.07;2.20;;;;;;;16.97;60.84;103017.81;5010547;28;20126;-54
2022/10/06 09:59:46;;;;;;;12.50;2.33;;;;;;;16.91;60.97;103026.25;5009331;28;20513;-55
2022/10/06 10:02:35;;;;;;;15.38;2.50;;;;;;;17.05;61.63;103022.47;5009117;28;20050;-54
2022/10/06 10:05:07;;;;;;;16.40;2.58;;;;;;;16.97;60.74;103029.09;5000093;28;20566;-54
2022/10/06 10:07:35;;;;;;;11.80;2.13;;;;;;;17.04;60.31;103020.66;5008415;28;20029;-54
2022/10/06 10:10:18;;;;;;;14.38;2.15;;;;;;;17.10;60.54;103020.00;5008456;28;20025;-52
2022/10/06 10:12:57;;;;;;;12.30;2.30;;;;;;;17.17;60.19;103011.63;5011023;28;20179;-54
2022/10/06 10:15:23;;;;;;;;;;;;;;;17.35;60.91;103021.75;5012066;28;20025;-54
2022/10/06 10:17:53;;;;;;;17.55;2.35;;;;;;;17.23;59.83;103019.63;5008252;28;19913;-54
2022/10/06 10:20:23;;;;;;;11.80;2.47;;;;;;;17.32;60.26;103016.44;5004976;28;20124;-53
2022/10/06 10:22:57;;;;;;;11.48;2.00;;;;;;;17.42;59.16;103024.63;5005956;28;20061;-54
2022/10/06 10:25:46;;;;;;;10.15;2.00;;;;;;;17.57;58.35;103021.66;5006636;28;20386;-54
2022/10/06 10:28:16;;;;;;;14.43;2.40;;;;;;;17.65;57.70;103033.22;5006152;28;20034;-54
2022/10/06 10:30:54;;;;;;;14.15;2.38;;;;;;;17.74;57.67;103040.47;5008724;28;20038;-54
2022/10/06 10:33:56;;;;;;;11.15;2.00;;;;;;;17.79;57.70;103030.22;5008851;28;20108;-53
2022/10/06 10:36:32;;;;;;;9.10;1.80;;;;;;;17.84;58.16;103026.94;4996929;28;20184;-54
2022/10/06 10:38:58;;;;;;;9.90;2.50;;;;;;;17.74;56.35;103031.78;5008513;28;20041;-55
2022/10/06 10:41:31;;;;;;;11.75;2.35;;;;;;;17.78;56.62;103024.13;5006456;28;20034;-55
2022/10/06 10:44:09;;;;;;;8.57;1.67;;;;;;;17.75;57.03;103025.72;5006376;28;20021;-54
2022/10/06 10:46:41;;;;;;;13.50;2.00;;;;;;;17.80;57.05;103027.66;5008793;28;20030;-54
2022/10/06 10:49:18;;;;;;;13.38;2.28;;;;;;;17.77;57.06;103022.31;5006593;28;20076;-54
2022/10/06 10:51:54;;;;;;;14.25;2.40;;;;;;;17.85;56.55;103033.91;5007133;28;20030;-55
2022/10/06 10:54:39;;;;;;;10.80;2.10;;;;;;;17.90;56.03;103023.66;5003390;28;20120;-55
2022/10/06 10:57:13;;;;;;;10.68;2.33;;;;;;;18.11;55.58;103021.69;5007482;28;20034;-54
2022/10/06 10:59:59;;;;;;;9.07;2.10;;;;;;;18.39;56.79;103030.38;5006924;28;21586;-54
2022/10/06 11:02:26;;;;;;;10.40;2.08;;;;;;;18.64;54.10;103031.97;5007737;28;20038;-55
2022/10/06 11:04:59;;;;;;;11.15;2.25;;;;;;;18.77;53.60;103034.13;5008344;28;20554;-54
2022/10/06 11:07:32;;;;;;;11.30;2.17;;;;;;;18.81;53.41;103032.47;5005754;28;20033;-54
2022/10/06 11:09:58;;;;;;;11.50;2.03;;;;;;;18.90;53.00;103035.38;5005165;28;20082;-55
2022/10/06 11:12:26;;;;;;;7.63;2.50;;;;;;;18.92;51.71;103031.94;5002464;28;20033;-54
2022/10/06 11:15:23;;;;;;;10.85;1.85;;;;;;;18.81;52.19;103037.69;5008404;28;20501;-56
2022/10/06 11:17:49;;;;;;;8.38;2.25;;;;;;;18.79;52.47;103032.44;5005091;28;20116;-56
2022/10/06 11:20:54;;;;;;;7.72;2.00;;;;;;;19.02;54.21;103049.63;5005307;28;20040;-56
2022/10/06 11:23:39;;;;;;;10.35;1.80;;;;;;;18.89;52.71;103037.09;5002932;28;20030;-55
2022/10/06 11:26:38;;;;;;;10.70;2.10;;;;;;;18.80;52.69;103036.81;5005417;28;20087;-55
2022/10/06 11:29:15;;;;;;;10.25;1.77;;;;;;;18.89;51.19;103028.38;5004772;28;20394;-54
2022/10/06 11:31:41;;;;;;;6.50;1.63;;;;;;;18.78;49.97;103033.28;5006209;28;20032;-55
2022/10/06 11:34:08;;;;;;;7.68;1.70;;;;;;;18.75;50.26;103035.81;5005069;28;20029;-54
2022/10/06 11:36:53;;;;;;;8.60;1.58;;;;;;;18.88;51.24;103032.72;5009067;28;20045;-56
2022/10/06 11:39:40;;;;;;;9.88;1.50;;;;;;;19.08;49.01;103032.38;5005810;28;20084;-55
2022/10/06 11:42:24;;;;;;;9.85;1.80;;;;;;;19.44;49.63;103033.38;5006814;28;20022;-55